sensor_id;sensor_type;location;lat;lon;timestamp;temperature;humidity
17154;DHT22;8692;52.164;7.558;2024-02-23T00:02:01;7.50;99.90
17154;DHT22;8692;52.164;7.558;2024-02-23T00:04:29;7.30;99.90
17154;DHT22;8692;52.164;7.558;2024-02-23T00:06:57;7.10;99.90
17154;DHT22;8692;52.164;7.558;2024-02-23T00:09:25;7.00;99.90
17154;DHT22;8692;52.164;7.558;2024-02-23T00:11:54;6.80;99.90
17154;DHT22;8692;52.164;7.558;2024-02-23T00:14:23;6.60;99.90
17154;DHT22;8692;52.164;7.558;2024-02-23T00:16:51;6.50;99.90
17154;DHT22;8692;52.164;7.558;2024-02-23T00:19:19;6.30;99.90
17154;DHT22;8692;52.164;7.558;2024-02-23T00:21:48;6.30;99.90
17154;DHT22;8692;52.164;7.558;2024-02-23T00:24:17;6.20;99.90
17154;DHT22;8692;52.164;7.558;2024-02-23T00:26:48;6.10;99.90
17154;DHT22;8692;52.164;7.558;2024-02-23T00:29:17;6.00;99.90
17154;DHT22;8692;52.164;7.558;2024-02-23T00:31:47;5.90;99.90
17154;DHT22;8692;52.164;7.558;2024-02-23T00:34:15;5.90;99.90
17154;DHT22;8692;52.164;7.558;2024-02-23T00:36:44;5.80;99.90
17154;DHT22;8692;52.164;7.558;2024-02-23T00:39:12;5.80;99.90
17154;DHT22;8692;52.164;7.558;2024-02-23T00:41:40;5.80;99.90
17154;DHT22;8692;52.164;7.558;2024-02-23T00:44:08;5.70;99.90
17154;DHT22;8692;52.164;7.558;2024-02-23T00:46:36;5.70;99.90
17154;DHT22;8692;52.164;7.558;2024-02-23T00:49:06;5.70;99.90
17154;DHT22;8692;52.164;7.558;2024-02-23T00:51:34;5.70;99.90
17154;DHT22;8692;52.164;7.558;2024-02-23T00:54:02;5.70;99.90
17154;DHT22;8692;52.164;7.558;2024-02-23T00:56:30;5.60;99.90
17154;DHT22;8692;52.164;7.558;2024-02-23T00:59:11;5.60;99.90
17154;DHT22;8692;52.164;7.558;2024-02-23T01:01:39;5.60;99.90
17154;DHT22;8692;52.164;7.558;2024-02-23T01:04:09;5.60;99.90
17154;DHT22;8692;52.164;7.558;2024-02-23T01:06:37;5.50;99.90
17154;DHT22;8692;52.164;7.558;2024-02-23T01:09:05;5.50;99.90
17154;DHT22;8692;52.164;7.558;2024-02-23T01:11:33;5.40;99.90
17154;DHT22;8692;52.164;7.558;2024-02-23T01:14:01;5.40;99.90
17154;DHT22;8692;52.164;7.558;2024-02-23T01:16:29;5.40;99.90
17154;DHT22;8692;52.164;7.558;2024-02-23T01:18:59;5.40;99.90
17154;DHT22;8692;52.164;7.558;2024-02-23T01:21:28;5.40;99.90
17154;DHT22;8692;52.164;7.558;2024-02-23T01:23:57;5.40;99.90
17154;DHT22;8692;52.164;7.558;2024-02-23T01:26:27;5.40;99.90
17154;DHT22;8692;52.164;7.558;2024-02-23T01:28:55;5.40;99.90
17154;DHT22;8692;52.164;7.558;2024-02-23T01:31:23;5.40;99.90
17154;DHT22;8692;52.164;7.558;2024-02-23T01:33:51;5.40;99.90
17154;DHT22;8692;52.164;7.558;2024-02-23T01:36:19;5.40;99.90
17154;DHT22;8692;52.164;7.558;2024-02-23T01:38:49;5.40;99.90
17154;DHT22;8692;52.164;7.558;2024-02-23T01:41:17;5.40;99.90
17154;DHT22;8692;52.164;7.558;2024-02-23T01:43:45;5.40;99.90
17154;DHT22;8692;52.164;7.558;2024-02-23T01:46:13;5.40;99.90
17154;DHT22;8692;52.164;7.558;2024-02-23T01:48:45;5.40;99.90
17154;DHT22;8692;52.164;7.558;2024-02-23T01:51:14;5.40;99.90
17154;DHT22;8692;52.164;7.558;2024-02-23T01:53:42;5.40;99.90
17154;DHT22;8692;52.164;7.558;2024-02-23T01:56:12;5.30;99.90
17154;DHT22;8692;52.164;7.558;2024-02-23T01:58:46;5.30;99.90
17154;DHT22;8692;52.164;7.558;2024-02-23T02:01:14;5.20;99.90
17154;DHT22;8692;52.164;7.558;2024-02-23T02:03:43;5.20;99.90
17154;DHT22;8692;52.164;7.558;2024-02-23T02:06:11;5.20;99.90
17154;DHT22;8692;52.164;7.558;2024-02-23T02:08:40;5.20;99.90
17154;DHT22;8692;52.164;7.558;2024-02-23T02:11:08;5.20;99.90
17154;DHT22;8692;52.164;7.558;2024-02-23T02:13:38;5.20;99.90
17154;DHT22;8692;52.164;7.558;2024-02-23T02:16:06;5.20;99.90
17154;DHT22;8692;52.164;7.558;2024-02-23T02:18:34;5.20;99.90
17154;DHT22;8692;52.164;7.558;2024-02-23T02:21:02;5.20;99.90
17154;DHT22;8692;52.164;7.558;2024-02-23T02:23:30;5.20;99.90
17154;DHT22;8692;52.164;7.558;2024-02-23T02:25:58;5.30;99.90
17154;DHT22;8692;52.164;7.558;2024-02-23T02:28:26;5.30;99.90
17154;DHT22;8692;52.164;7.558;2024-02-23T02:30:56;5.30;99.90
17154;DHT22;8692;52.164;7.558;2024-02-23T02:33:24;5.40;99.90
17154;DHT22;8692;52.164;7.558;2024-02-23T02:35:52;5.40;99.90
17154;DHT22;8692;52.164;7.558;2024-02-23T02:38:20;5.40;99.90
17154;DHT22;8692;52.164;7.558;2024-02-23T02:40:48;5.40;99.90
17154;DHT22;8692;52.164;7.558;2024-02-23T02:43:16;5.50;99.90
17154;DHT22;8692;52.164;7.558;2024-02-23T02:45:44;5.50;99.90
17154;DHT22;8692;52.164;7.558;2024-02-23T02:48:14;5.50;99.90
17154;DHT22;8692;52.164;7.558;2024-02-23T02:50:42;5.60;99.90
17154;DHT22;8692;52.164;7.558;2024-02-23T02:53:11;5.60;99.90
17154;DHT22;8692;52.164;7.558;2024-02-23T02:55:42;5.60;99.90
17154;DHT22;8692;52.164;7.558;2024-02-23T02:58:11;5.60;99.90
17154;DHT22;8692;52.164;7.558;2024-02-23T03:00:40;5.60;99.90
17154;DHT22;8692;52.164;7.558;2024-02-23T03:03:08;5.60;99.90
17154;DHT22;8692;52.164;7.558;2024-02-23T03:05:37;5.60;99.90
17154;DHT22;8692;52.164;7.558;2024-02-23T03:08:06;5.60;99.90
17154;DHT22;8692;52.164;7.558;2024-02-23T03:10:34;5.60;99.90
17154;DHT22;8692;52.164;7.558;2024-02-23T03:13:02;5.60;99.90
17154;DHT22;8692;52.164;7.558;2024-02-23T03:15:30;5.70;99.90
17154;DHT22;8692;52.164;7.558;2024-02-23T03:17:58;5.70;99.90
17154;DHT22;8692;52.164;7.558;2024-02-23T03:20:28;5.70;99.90
17154;DHT22;8692;52.164;7.558;2024-02-23T03:22:57;5.70;99.90
17154;DHT22;8692;52.164;7.558;2024-02-23T03:25:25;5.70;99.90
17154;DHT22;8692;52.164;7.558;2024-02-23T03:27:53;5.70;99.90
17154;DHT22;8692;52.164;7.558;2024-02-23T03:30:21;5.70;99.90
17154;DHT22;8692;52.164;7.558;2024-02-23T03:32:50;5.70;99.90
17154;DHT22;8692;52.164;7.558;2024-02-23T03:35:18;5.70;99.90
17154;DHT22;8692;52.164;7.558;2024-02-23T03:37:46;5.70;99.90
17154;DHT22;8692;52.164;7.558;2024-02-23T03:40:15;5.70;99.90
17154;DHT22;8692;52.164;7.558;2024-02-23T03:42:44;5.80;99.90
17154;DHT22;8692;52.164;7.558;2024-02-23T03:45:13;5.80;99.90
17154;DHT22;8692;52.164;7.558;2024-02-23T03:47:41;5.80;99.90
17154;DHT22;8692;52.164;7.558;2024-02-23T03:50:09;5.80;99.90
17154;DHT22;8692;52.164;7.558;2024-02-23T03:52:38;5.80;99.90
17154;DHT22;8692;52.164;7.558;2024-02-23T03:55:06;5.80;99.90
17154;DHT22;8692;52.164;7.558;2024-02-23T03:57:36;5.80;99.90
17154;DHT22;8692;52.164;7.558;2024-02-23T04:00:05;5.80;99.90
17154;DHT22;8692;52.164;7.558;2024-02-23T04:02:39;5.80;99.90
17154;DHT22;8692;52.164;7.558;2024-02-23T04:05:07;5.80;99.90
17154;DHT22;8692;52.164;7.558;2024-02-23T04:07:34;5.80;99.90
17154;DHT22;8692;52.164;7.558;2024-02-23T04:10:03;5.80;99.90
17154;DHT22;8692;52.164;7.558;2024-02-23T04:12:31;5.70;99.90
17154;DHT22;8692;52.164;7.558;2024-02-23T04:15:01;5.70;99.90
17154;DHT22;8692;52.164;7.558;2024-02-23T04:17:29;5.70;99.90
17154;DHT22;8692;52.164;7.558;2024-02-23T04:19:59;5.70;99.90
17154;DHT22;8692;52.164;7.558;2024-02-23T04:22:30;5.70;99.90
17154;DHT22;8692;52.164;7.558;2024-02-23T04:24:58;5.70;99.90
17154;DHT22;8692;52.164;7.558;2024-02-23T04:27:26;5.60;99.90
17154;DHT22;8692;52.164;7.558;2024-02-23T04:29:54;5.60;99.90
17154;DHT22;8692;52.164;7.558;2024-02-23T04:32:23;5.60;99.90
17154;DHT22;8692;52.164;7.558;2024-02-23T04:34:52;5.60;99.90
17154;DHT22;8692;52.164;7.558;2024-02-23T04:37:20;5.60;99.90
17154;DHT22;8692;52.164;7.558;2024-02-23T04:39:48;5.60;99.90
17154;DHT22;8692;52.164;7.558;2024-02-23T04:42:16;5.60;99.90
17154;DHT22;8692;52.164;7.558;2024-02-23T04:44:44;5.60;99.90
17154;DHT22;8692;52.164;7.558;2024-02-23T04:47:12;5.60;99.90
17154;DHT22;8692;52.164;7.558;2024-02-23T04:49:42;5.50;99.90
17154;DHT22;8692;52.164;7.558;2024-02-23T04:52:10;5.50;99.90
17154;DHT22;8692;52.164;7.558;2024-02-23T04:54:38;5.50;99.90
17154;DHT22;8692;52.164;7.558;2024-02-23T04:57:06;5.60;99.90
17154;DHT22;8692;52.164;7.558;2024-02-23T04:59:34;5.50;99.90
17154;DHT22;8692;52.164;7.558;2024-02-23T05:02:02;5.50;99.90
17154;DHT22;8692;52.164;7.558;2024-02-23T05:04:31;5.50;99.90
17154;DHT22;8692;52.164;7.558;2024-02-23T05:07:01;5.50;99.90
17154;DHT22;8692;52.164;7.558;2024-02-23T05:09:29;5.60;99.90
17154;DHT22;8692;52.164;7.558;2024-02-23T05:11:58;5.60;99.90
17154;DHT22;8692;52.164;7.558;2024-02-23T05:14:27;5.60;99.90
17154;DHT22;8692;52.164;7.558;2024-02-23T05:16:55;5.60;99.90
17154;DHT22;8692;52.164;7.558;2024-02-23T05:19:23;5.60;99.90
17154;DHT22;8692;52.164;7.558;2024-02-23T05:21:51;5.60;99.90
17154;DHT22;8692;52.164;7.558;2024-02-23T05:24:20;5.60;99.90
17154;DHT22;8692;52.164;7.558;2024-02-23T05:26:49;5.60;99.90
17154;DHT22;8692;52.164;7.558;2024-02-23T05:29:17;5.60;99.90
17154;DHT22;8692;52.164;7.558;2024-02-23T05:31:48;5.60;99.90
17154;DHT22;8692;52.164;7.558;2024-02-23T05:34:16;5.70;99.90
17154;DHT22;8692;52.164;7.558;2024-02-23T05:36:45;5.70;99.90
17154;DHT22;8692;52.164;7.558;2024-02-23T05:39:14;5.70;99.90
17154;DHT22;8692;52.164;7.558;2024-02-23T05:41:44;5.70;99.90
17154;DHT22;8692;52.164;7.558;2024-02-23T05:44:12;5.70;99.90
17154;DHT22;8692;52.164;7.558;2024-02-23T05:46:42;5.70;99.90
17154;DHT22;8692;52.164;7.558;2024-02-23T05:49:11;5.70;99.90
17154;DHT22;8692;52.164;7.558;2024-02-23T05:51:39;5.70;99.90
17154;DHT22;8692;52.164;7.558;2024-02-23T05:54:08;5.70;99.90
17154;DHT22;8692;52.164;7.558;2024-02-23T05:56:36;5.70;99.90
17154;DHT22;8692;52.164;7.558;2024-02-23T05:59:05;5.80;99.90
17154;DHT22;8692;52.164;7.558;2024-02-23T06:01:34;5.80;99.90
17154;DHT22;8692;52.164;7.558;2024-02-23T06:04:02;5.80;99.90
17154;DHT22;8692;52.164;7.558;2024-02-23T06:06:30;5.80;99.90
17154;DHT22;8692;52.164;7.558;2024-02-23T06:08:59;5.80;99.90
17154;DHT22;8692;52.164;7.558;2024-02-23T06:11:27;5.80;99.90
17154;DHT22;8692;52.164;7.558;2024-02-23T06:13:55;5.80;99.90
17154;DHT22;8692;52.164;7.558;2024-02-23T06:16:24;5.80;99.90
17154;DHT22;8692;52.164;7.558;2024-02-23T06:18:52;5.80;99.90
17154;DHT22;8692;52.164;7.558;2024-02-23T06:21:21;5.80;99.90
17154;DHT22;8692;52.164;7.558;2024-02-23T06:23:49;5.70;99.90
17154;DHT22;8692;52.164;7.558;2024-02-23T06:26:17;5.70;99.90
17154;DHT22;8692;52.164;7.558;2024-02-23T06:28:45;5.70;99.90
17154;DHT22;8692;52.164;7.558;2024-02-23T06:31:13;5.70;99.90
17154;DHT22;8692;52.164;7.558;2024-02-23T06:33:42;5.70;99.90
17154;DHT22;8692;52.164;7.558;2024-02-23T06:36:10;5.70;99.90
17154;DHT22;8692;52.164;7.558;2024-02-23T06:38:38;5.70;99.90
17154;DHT22;8692;52.164;7.558;2024-02-23T06:41:06;5.70;99.90
17154;DHT22;8692;52.164;7.558;2024-02-23T06:43:37;5.70;99.90
17154;DHT22;8692;52.164;7.558;2024-02-23T06:46:06;5.70;99.90
17154;DHT22;8692;52.164;7.558;2024-02-23T06:48:34;5.70;99.90
17154;DHT22;8692;52.164;7.558;2024-02-23T06:51:05;5.70;99.90
17154;DHT22;8692;52.164;7.558;2024-02-23T06:53:36;5.70;99.90
17154;DHT22;8692;52.164;7.558;2024-02-23T06:56:05;5.70;99.90
17154;DHT22;8692;52.164;7.558;2024-02-23T06:58:34;5.70;99.90
17154;DHT22;8692;52.164;7.558;2024-02-23T07:01:02;5.70;99.90
17154;DHT22;8692;52.164;7.558;2024-02-23T07:03:32;5.70;99.90
17154;DHT22;8692;52.164;7.558;2024-02-23T07:06:02;5.70;99.90
17154;DHT22;8692;52.164;7.558;2024-02-23T07:08:32;5.70;99.90
17154;DHT22;8692;52.164;7.558;2024-02-23T07:11:00;5.80;99.90
17154;DHT22;8692;52.164;7.558;2024-02-23T07:13:28;5.80;99.90
17154;DHT22;8692;52.164;7.558;2024-02-23T07:15:56;5.80;99.90
17154;DHT22;8692;52.164;7.558;2024-02-23T07:18:25;5.80;99.90
17154;DHT22;8692;52.164;7.558;2024-02-23T07:20:53;5.80;99.90
17154;DHT22;8692;52.164;7.558;2024-02-23T07:23:21;5.90;99.90
17154;DHT22;8692;52.164;7.558;2024-02-23T07:25:51;5.90;99.90
17154;DHT22;8692;52.164;7.558;2024-02-23T07:28:20;5.90;99.90
17154;DHT22;8692;52.164;7.558;2024-02-23T07:30:50;5.90;99.90
17154;DHT22;8692;52.164;7.558;2024-02-23T07:33:18;5.90;99.90
17154;DHT22;8692;52.164;7.558;2024-02-23T07:35:47;6.00;99.90
17154;DHT22;8692;52.164;7.558;2024-02-23T07:38:14;6.00;99.90
17154;DHT22;8692;52.164;7.558;2024-02-23T07:40:44;6.10;99.90
17154;DHT22;8692;52.164;7.558;2024-02-23T07:43:14;6.10;99.90
17154;DHT22;8692;52.164;7.558;2024-02-23T07:45:42;6.10;99.90
17154;DHT22;8692;52.164;7.558;2024-02-23T07:48:10;6.20;99.90
17154;DHT22;8692;52.164;7.558;2024-02-23T07:50:38;6.20;99.90
17154;DHT22;8692;52.164;7.558;2024-02-23T07:53:06;6.20;99.90
17154;DHT22;8692;52.164;7.558;2024-02-23T07:55:35;6.20;99.90
17154;DHT22;8692;52.164;7.558;2024-02-23T07:58:03;6.20;99.90
17154;DHT22;8692;52.164;7.558;2024-02-23T08:00:32;6.30;99.90
17154;DHT22;8692;52.164;7.558;2024-02-23T08:03:01;6.30;99.90
17154;DHT22;8692;52.164;7.558;2024-02-23T08:05:29;6.30;99.90
17154;DHT22;8692;52.164;7.558;2024-02-23T08:07:57;6.30;99.90
17154;DHT22;8692;52.164;7.558;2024-02-23T08:10:26;6.30;99.90
17154;DHT22;8692;52.164;7.558;2024-02-23T08:12:54;6.40;99.90
17154;DHT22;8692;52.164;7.558;2024-02-23T08:15:22;6.40;99.90
17154;DHT22;8692;52.164;7.558;2024-02-23T08:17:51;6.40;99.90
17154;DHT22;8692;52.164;7.558;2024-02-23T08:20:22;6.40;99.90
17154;DHT22;8692;52.164;7.558;2024-02-23T08:22:50;6.50;99.90
17154;DHT22;8692;52.164;7.558;2024-02-23T08:25:18;6.50;99.90
17154;DHT22;8692;52.164;7.558;2024-02-23T08:27:46;6.50;99.90
17154;DHT22;8692;52.164;7.558;2024-02-23T08:30:15;6.60;99.90
17154;DHT22;8692;52.164;7.558;2024-02-23T08:32:43;6.60;99.90
17154;DHT22;8692;52.164;7.558;2024-02-23T08:35:13;6.60;99.90
17154;DHT22;8692;52.164;7.558;2024-02-23T08:37:42;6.70;99.90
17154;DHT22;8692;52.164;7.558;2024-02-23T08:40:10;6.70;99.90
17154;DHT22;8692;52.164;7.558;2024-02-23T08:42:38;6.70;99.90
17154;DHT22;8692;52.164;7.558;2024-02-23T08:45:07;6.70;99.90
17154;DHT22;8692;52.164;7.558;2024-02-23T08:47:36;6.70;99.90
17154;DHT22;8692;52.164;7.558;2024-02-23T08:50:06;6.70;99.90
17154;DHT22;8692;52.164;7.558;2024-02-23T08:52:35;6.80;99.90
17154;DHT22;8692;52.164;7.558;2024-02-23T08:55:04;6.80;99.90
17154;DHT22;8692;52.164;7.558;2024-02-23T08:57:32;6.80;99.90
17154;DHT22;8692;52.164;7.558;2024-02-23T09:00:00;6.80;99.90
17154;DHT22;8692;52.164;7.558;2024-02-23T09:02:28;6.80;99.90
17154;DHT22;8692;52.164;7.558;2024-02-23T09:04:56;6.80;99.90
17154;DHT22;8692;52.164;7.558;2024-02-23T09:07:25;6.80;99.90
17154;DHT22;8692;52.164;7.558;2024-02-23T09:09:54;6.80;99.90
17154;DHT22;8692;52.164;7.558;2024-02-23T09:12:24;6.90;99.90
17154;DHT22;8692;52.164;7.558;2024-02-23T09:14:53;6.90;99.90
17154;DHT22;8692;52.164;7.558;2024-02-23T09:17:21;6.90;99.90
17154;DHT22;8692;52.164;7.558;2024-02-23T09:19:50;6.90;99.90
17154;DHT22;8692;52.164;7.558;2024-02-23T09:22:18;6.90;99.90
17154;DHT22;8692;52.164;7.558;2024-02-23T09:24:46;6.90;99.90
17154;DHT22;8692;52.164;7.558;2024-02-23T09:27:15;6.90;99.90
17154;DHT22;8692;52.164;7.558;2024-02-23T09:29:44;6.90;99.90
17154;DHT22;8692;52.164;7.558;2024-02-23T09:32:12;7.00;99.90
17154;DHT22;8692;52.164;7.558;2024-02-23T09:34:40;7.00;99.90
17154;DHT22;8692;52.164;7.558;2024-02-23T09:37:09;7.00;99.90
17154;DHT22;8692;52.164;7.558;2024-02-23T09:39:37;7.00;99.90
17154;DHT22;8692;52.164;7.558;2024-02-23T09:42:09;7.00;99.90
17154;DHT22;8692;52.164;7.558;2024-02-23T09:44:39;7.00;99.90
17154;DHT22;8692;52.164;7.558;2024-02-23T09:47:10;7.00;99.90
17154;DHT22;8692;52.164;7.558;2024-02-23T09:49:39;7.00;99.90
17154;DHT22;8692;52.164;7.558;2024-02-23T09:52:08;7.00;99.90
17154;DHT22;8692;52.164;7.558;2024-02-23T09:54:37;7.00;99.90
17154;DHT22;8692;52.164;7.558;2024-02-23T09:57:07;7.00;99.90
17154;DHT22;8692;52.164;7.558;2024-02-23T09:59:38;7.00;99.90
17154;DHT22;8692;52.164;7.558;2024-02-23T10:02:07;6.90;99.90
17154;DHT22;8692;52.164;7.558;2024-02-23T10:04:36;6.90;99.90
17154;DHT22;8692;52.164;7.558;2024-02-23T10:07:06;7.00;99.90
17154;DHT22;8692;52.164;7.558;2024-02-23T10:09:34;7.00;99.90
17154;DHT22;8692;52.164;7.558;2024-02-23T10:12:03;7.00;99.90
17154;DHT22;8692;52.164;7.558;2024-02-23T10:14:31;7.00;99.90
17154;DHT22;8692;52.164;7.558;2024-02-23T10:17:00;7.00;99.90
17154;DHT22;8692;52.164;7.558;2024-02-23T10:19:29;7.00;99.90
17154;DHT22;8692;52.164;7.558;2024-02-23T10:21:57;7.00;99.90
17154;DHT22;8692;52.164;7.558;2024-02-23T10:24:25;7.00;99.90
17154;DHT22;8692;52.164;7.558;2024-02-23T10:26:53;7.10;99.90
17154;DHT22;8692;52.164;7.558;2024-02-23T10:29:21;7.10;99.90
17154;DHT22;8692;52.164;7.558;2024-02-23T10:31:51;7.10;99.90
17154;DHT22;8692;52.164;7.558;2024-02-23T10:34:22;7.10;99.90
17154;DHT22;8692;52.164;7.558;2024-02-23T10:36:52;7.10;99.90
17154;DHT22;8692;52.164;7.558;2024-02-23T10:39:22;7.20;99.90
17154;DHT22;8692;52.164;7.558;2024-02-23T10:41:56;7.10;99.90
17154;DHT22;8692;52.164;7.558;2024-02-23T10:44:26;7.10;99.90
17154;DHT22;8692;52.164;7.558;2024-02-23T10:46:56;7.10;99.90
17154;DHT22;8692;52.164;7.558;2024-02-23T10:49:28;7.20;99.90
17154;DHT22;8692;52.164;7.558;2024-02-23T10:51:56;7.20;99.90
17154;DHT22;8692;52.164;7.558;2024-02-23T10:54:25;7.20;99.90
17154;DHT22;8692;52.164;7.558;2024-02-23T10:56:53;7.20;99.90
17154;DHT22;8692;52.164;7.558;2024-02-23T10:59:23;7.20;99.90
17154;DHT22;8692;52.164;7.558;2024-02-23T11:01:53;7.20;99.90
17154;DHT22;8692;52.164;7.558;2024-02-23T11:04:24;7.30;99.90
17154;DHT22;8692;52.164;7.558;2024-02-23T11:06:55;7.30;99.90
17154;DHT22;8692;52.164;7.558;2024-02-23T11:09:25;7.30;99.90
17154;DHT22;8692;52.164;7.558;2024-02-23T11:11:55;7.30;99.90
17154;DHT22;8692;52.164;7.558;2024-02-23T11:14:30;7.30;99.90
17154;DHT22;8692;52.164;7.558;2024-02-23T11:17:00;7.30;99.90
17154;DHT22;8692;52.164;7.558;2024-02-23T11:19:35;7.40;99.90
17154;DHT22;8692;52.164;7.558;2024-02-23T11:22:09;7.40;99.90
17154;DHT22;8692;52.164;7.558;2024-02-23T11:24:49;7.40;99.90
17154;DHT22;8692;52.164;7.558;2024-02-23T11:27:24;7.50;99.90
17154;DHT22;8692;52.164;7.558;2024-02-23T11:29:59;7.50;99.90
17154;DHT22;8692;52.164;7.558;2024-02-23T11:32:37;7.60;99.90
17154;DHT22;8692;52.164;7.558;2024-02-23T11:35:07;7.60;99.90
17154;DHT22;8692;52.164;7.558;2024-02-23T11:37:52;7.60;99.90
17154;DHT22;8692;52.164;7.558;2024-02-23T11:40:25;7.70;99.90
17154;DHT22;8692;52.164;7.558;2024-02-23T11:42:54;7.70;99.90
17154;DHT22;8692;52.164;7.558;2024-02-23T11:45:23;7.80;99.90
17154;DHT22;8692;52.164;7.558;2024-02-23T11:47:52;7.90;99.90
17154;DHT22;8692;52.164;7.558;2024-02-23T11:50:20;8.00;99.90
17154;DHT22;8692;52.164;7.558;2024-02-23T11:52:49;8.00;99.90
17154;DHT22;8692;52.164;7.558;2024-02-23T11:55:19;8.10;99.90
17154;DHT22;8692;52.164;7.558;2024-02-23T11:57:49;8.10;99.90
17154;DHT22;8692;52.164;7.558;2024-02-23T12:00:30;8.10;99.90
17154;DHT22;8692;52.164;7.558;2024-02-23T12:02:59;8.00;99.90
17154;DHT22;8692;52.164;7.558;2024-02-23T12:05:27;8.00;99.90
17154;DHT22;8692;52.164;7.558;2024-02-23T12:07:56;8.00;99.90
17154;DHT22;8692;52.164;7.558;2024-02-23T12:10:25;8.00;99.90
17154;DHT22;8692;52.164;7.558;2024-02-23T12:12:53;8.00;99.90
17154;DHT22;8692;52.164;7.558;2024-02-23T12:15:22;8.00;99.90
17154;DHT22;8692;52.164;7.558;2024-02-23T12:17:50;8.00;99.90
17154;DHT22;8692;52.164;7.558;2024-02-23T12:20:18;8.00;99.90
17154;DHT22;8692;52.164;7.558;2024-02-23T12:22:47;8.00;99.90
17154;DHT22;8692;52.164;7.558;2024-02-23T12:25:17;8.00;99.90
17154;DHT22;8692;52.164;7.558;2024-02-23T12:27:45;8.00;99.90
17154;DHT22;8692;52.164;7.558;2024-02-23T12:30:14;8.10;99.90
17154;DHT22;8692;52.164;7.558;2024-02-23T12:32:44;8.20;99.90
17154;DHT22;8692;52.164;7.558;2024-02-23T12:35:12;8.20;99.90
17154;DHT22;8692;52.164;7.558;2024-02-23T12:37:40;8.20;99.90
17154;DHT22;8692;52.164;7.558;2024-02-23T12:40:11;8.40;99.90
17154;DHT22;8692;52.164;7.558;2024-02-23T12:42:41;8.50;99.90
17154;DHT22;8692;52.164;7.558;2024-02-23T12:45:11;8.50;99.90
17154;DHT22;8692;52.164;7.558;2024-02-23T12:47:39;8.50;99.90
17154;DHT22;8692;52.164;7.558;2024-02-23T12:50:08;8.50;99.90
17154;DHT22;8692;52.164;7.558;2024-02-23T12:52:37;8.50;99.90
17154;DHT22;8692;52.164;7.558;2024-02-23T12:55:05;8.60;99.90
17154;DHT22;8692;52.164;7.558;2024-02-23T12:57:33;8.60;99.90
17154;DHT22;8692;52.164;7.558;2024-02-23T13:00:03;8.60;99.90
17154;DHT22;8692;52.164;7.558;2024-02-23T13:02:32;8.60;99.90
17154;DHT22;8692;52.164;7.558;2024-02-23T13:05:00;8.50;99.90
17154;DHT22;8692;52.164;7.558;2024-02-23T13:07:29;8.50;99.90
17154;DHT22;8692;52.164;7.558;2024-02-23T13:09:57;8.50;99.90
17154;DHT22;8692;52.164;7.558;2024-02-23T13:12:26;8.40;99.90
17154;DHT22;8692;52.164;7.558;2024-02-23T13:14:54;8.30;99.90
17154;DHT22;8692;52.164;7.558;2024-02-23T13:17:23;8.20;99.90
17154;DHT22;8692;52.164;7.558;2024-02-23T13:19:52;8.10;99.90
17154;DHT22;8692;52.164;7.558;2024-02-23T13:22:36;8.10;99.90
17154;DHT22;8692;52.164;7.558;2024-02-23T13:25:05;8.00;99.90
17154;DHT22;8692;52.164;7.558;2024-02-23T13:27:33;8.00;99.90
17154;DHT22;8692;52.164;7.558;2024-02-23T13:30:02;8.00;99.90
17154;DHT22;8692;52.164;7.558;2024-02-23T13:32:31;7.90;99.90
17154;DHT22;8692;52.164;7.558;2024-02-23T13:35:00;7.90;99.90
17154;DHT22;8692;52.164;7.558;2024-02-23T13:37:31;7.90;99.90
17154;DHT22;8692;52.164;7.558;2024-02-23T13:39:59;7.90;99.90
17154;DHT22;8692;52.164;7.558;2024-02-23T13:42:27;7.90;99.90
17154;DHT22;8692;52.164;7.558;2024-02-23T13:44:55;7.90;99.90
17154;DHT22;8692;52.164;7.558;2024-02-23T13:47:25;8.00;99.90
17154;DHT22;8692;52.164;7.558;2024-02-23T13:49:54;8.00;99.90
17154;DHT22;8692;52.164;7.558;2024-02-23T13:52:22;7.90;99.90
17154;DHT22;8692;52.164;7.558;2024-02-23T13:54:51;8.00;99.90
17154;DHT22;8692;52.164;7.558;2024-02-23T13:57:29;7.90;99.90
17154;DHT22;8692;52.164;7.558;2024-02-23T13:59:58;7.90;99.90
17154;DHT22;8692;52.164;7.558;2024-02-23T14:02:37;7.90;99.90
17154;DHT22;8692;52.164;7.558;2024-02-23T14:05:08;8.00;99.90
17154;DHT22;8692;52.164;7.558;2024-02-23T14:07:36;8.00;99.90
17154;DHT22;8692;52.164;7.558;2024-02-23T14:10:06;8.00;99.90
17154;DHT22;8692;52.164;7.558;2024-02-23T14:12:34;8.00;99.90
17154;DHT22;8692;52.164;7.558;2024-02-23T14:15:02;8.00;99.90
17154;DHT22;8692;52.164;7.558;2024-02-23T14:17:31;8.10;99.90
17154;DHT22;8692;52.164;7.558;2024-02-23T14:20:00;8.10;99.90
17154;DHT22;8692;52.164;7.558;2024-02-23T14:22:30;8.20;99.90
17154;DHT22;8692;52.164;7.558;2024-02-23T14:24:58;8.20;99.90
17154;DHT22;8692;52.164;7.558;2024-02-23T14:27:26;8.30;99.90
17154;DHT22;8692;52.164;7.558;2024-02-23T14:29:57;8.30;99.90
17154;DHT22;8692;52.164;7.558;2024-02-23T14:32:26;8.30;99.90
17154;DHT22;8692;52.164;7.558;2024-02-23T14:34:54;8.30;99.90
17154;DHT22;8692;52.164;7.558;2024-02-23T14:37:24;8.30;99.90
17154;DHT22;8692;52.164;7.558;2024-02-23T14:39:53;8.30;99.90
17154;DHT22;8692;52.164;7.558;2024-02-23T14:42:22;8.30;99.90
17154;DHT22;8692;52.164;7.558;2024-02-23T14:44:50;8.20;99.90
17154;DHT22;8692;52.164;7.558;2024-02-23T14:47:18;8.20;99.90
17154;DHT22;8692;52.164;7.558;2024-02-23T14:49:54;8.20;99.90
17154;DHT22;8692;52.164;7.558;2024-02-23T14:52:23;8.20;99.90
17154;DHT22;8692;52.164;7.558;2024-02-23T14:54:51;8.10;99.90
17154;DHT22;8692;52.164;7.558;2024-02-23T14:57:22;8.10;99.90
17154;DHT22;8692;52.164;7.558;2024-02-23T14:59:50;8.10;99.90
17154;DHT22;8692;52.164;7.558;2024-02-23T15:02:20;8.10;99.90
17154;DHT22;8692;52.164;7.558;2024-02-23T15:04:48;8.10;99.90
17154;DHT22;8692;52.164;7.558;2024-02-23T15:07:16;8.10;99.90
17154;DHT22;8692;52.164;7.558;2024-02-23T15:09:44;8.10;99.90
17154;DHT22;8692;52.164;7.558;2024-02-23T15:12:12;8.10;99.90
17154;DHT22;8692;52.164;7.558;2024-02-23T15:14:43;8.10;99.90
17154;DHT22;8692;52.164;7.558;2024-02-23T15:17:11;8.10;99.90
17154;DHT22;8692;52.164;7.558;2024-02-23T15:19:39;8.10;99.90
17154;DHT22;8692;52.164;7.558;2024-02-23T15:22:07;8.10;99.90
17154;DHT22;8692;52.164;7.558;2024-02-23T15:24:40;8.10;99.90
17154;DHT22;8692;52.164;7.558;2024-02-23T15:27:12;8.10;99.90
17154;DHT22;8692;52.164;7.558;2024-02-23T15:29:40;8.10;99.90
17154;DHT22;8692;52.164;7.558;2024-02-23T15:32:09;8.10;99.90
17154;DHT22;8692;52.164;7.558;2024-02-23T15:34:38;8.10;99.90
17154;DHT22;8692;52.164;7.558;2024-02-23T15:37:06;8.10;99.90
17154;DHT22;8692;52.164;7.558;2024-02-23T15:39:34;8.00;99.90
17154;DHT22;8692;52.164;7.558;2024-02-23T15:42:02;7.90;99.90
17154;DHT22;8692;52.164;7.558;2024-02-23T15:44:31;7.90;99.90
17154;DHT22;8692;52.164;7.558;2024-02-23T15:46:59;7.90;99.90
17154;DHT22;8692;52.164;7.558;2024-02-23T15:49:29;7.90;99.90
17154;DHT22;8692;52.164;7.558;2024-02-23T15:52:17;7.90;99.90
17154;DHT22;8692;52.164;7.558;2024-02-23T15:54:46;7.90;99.90
17154;DHT22;8692;52.164;7.558;2024-02-23T15:57:14;7.90;99.90
17154;DHT22;8692;52.164;7.558;2024-02-23T15:59:42;7.80;99.90
17154;DHT22;8692;52.164;7.558;2024-02-23T16:02:13;7.80;99.90
17154;DHT22;8692;52.164;7.558;2024-02-23T16:04:42;7.80;99.90
17154;DHT22;8692;52.164;7.558;2024-02-23T16:07:11;7.80;99.90
17154;DHT22;8692;52.164;7.558;2024-02-23T16:09:39;7.70;99.90
17154;DHT22;8692;52.164;7.558;2024-02-23T16:12:07;7.80;99.90
17154;DHT22;8692;52.164;7.558;2024-02-23T16:14:37;7.80;99.90